KSFB/SFB METAR and TAF weather

Enter ICAO airport designator
Station Type Date Time Source
KSFB METAR 2022/06/25 22:53 UTC NOAA

KSFB 252253Z 07013KT 10SM SCT031 BKN038 29/22 A3001 RMK AO2 SLP160 T02890222


Station Type Date Time Source
KSFB Decoded METAR 2022/06/25 22:53 UTC NOAA

ORLANDO SANFORD AIRPORT, FL, United States (KSFB) 28-47N 081-15W
Jun 25, 2022 - 06:53 PM EDT / 2022.06.25 2253 UTC
Wind: from the ENE (070 degrees) at 15 MPH (13 KT):0
Visibility: 10 mile(s):0
Sky conditions: mostly cloudy
Temperature: 84.0 F (28.9 C)
Dew Point: 72.0 F (22.2 C)
Relative Humidity: 67%
Pressure (altimeter): 30.01 in. Hg (1016 hPa)
ob: KSFB 252253Z 07013KT 10SM SCT031 BKN038 29/22 A3001 RMK AO2 SLP160 T02890222
cycle: 23

Station Type Date Time Source
KSFB TAF 2022/06/25 20:21 UTC NOAA

TAF
AMD KSFB 252018Z 2520/2618 05011KT P6SM VCTS SCT025CB SCT050 BKN250
TEMPO 2520/2522 BKN025CB
FM252200 06011KT P6SM SCT025 SCT100
FM260100 07004KT P6SM FEW035 SCT100 BKN200
FM261400 07008KT P6SM SCT035 BKN100

Example: see airport list